Time;durP1;ratioP1;P1;durP2;ratioP2;P2;SDS_P1;SDS_P2;PMS_P1;PMS_P2;Temp;Humidity;BMP_temperature;BMP_pressure;BME280_temperature;BME280_humidity;BME280_pressure;Samples;Min_cycle;Max_cycle;Signal;HPM_P1;HPM_P2
2021/11/08 00:01:03;;;;;;;8.60;4.20;;;;;;;7.52;82.82;98436.38;4932258;29;20551;-49
2021/11/08 00:03:32;;;;;;;7.40;4.22;;;;;;;7.55;82.38;98448.31;4931270;29;20052;-56
2021/11/08 00:06:04;;;;;;;6.40;4.30;;;;;;;7.53;82.40;98427.72;4937857;29;20043;-51
2021/11/08 00:08:30;;;;;;;6.50;3.80;;;;;;;7.53;82.18;98427.72;4914801;29;20177;-50
2021/11/08 00:10:56;;;;;;;7.22;3.65;;;;;;;7.53;81.48;98424.28;4933330;29;20131;-48
2021/11/08 00:13:22;;;;;;;6.88;4.40;;;;;;;7.46;81.67;98405.59;4915141;29;20035;-47
2021/11/08 00:16:01;;;;;;;8.63;4.43;;;;;;;7.55;81.78;98422.47;4924125;29;20109;-46
2021/11/08 00:20:59;;;;;;;9.35;4.10;;;;;;;7.55;80.35;98417.28;4912328;29;20076;-48
2021/11/08 00:23:29;;;;;;;4.47;3.00;;;;;;;7.45;80.45;98413.41;4919694;29;20044;-48
2021/11/08 00:25:57;;;;;;;8.32;3.88;;;;;;;7.49;80.72;98412.38;4914347;29;20090;-52
2021/11/08 00:28:24;;;;;;;8.20;4.78;;;;;;;7.40;80.72;98389.50;4916327;29;20044;-50
2021/11/08 00:30:51;;;;;;;6.07;3.70;;;;;;;7.53;80.24;98398.44;4931058;29;20474;-45
2021/11/08 00:33:19;;;;;;;5.20;3.15;;;;;;;7.52;80.04;98409.66;4918763;29;20126;-47
2021/11/08 00:35:46;;;;;;;12.75;4.93;;;;;;;7.55;79.95;98407.78;4926258;29;20046;-47
2021/11/08 00:38:13;;;;;;;7.00;4.72;;;;;;;7.54;79.87;98405.25;4924198;29;20065;-49
2021/11/08 00:40:39;;;;;;;5.80;2.70;;;;;;;7.50;79.74;98396.78;4931422;29;20050;-46
2021/11/08 00:43:05;;;;;;;10.57;4.70;;;;;;;7.51;79.95;98388.13;4923042;29;20047;-47
2021/11/08 00:45:32;;;;;;;8.50;4.93;;;;;;;7.60;79.78;98382.56;4891329;29;20035;-48
2021/11/08 00:47:59;;;;;;;5.15;3.22;;;;;;;7.48;78.89;98377.09;4911728;29;20036;-49
2021/11/08 00:50:26;;;;;;;8.63;5.32;;;;;;;7.46;79.16;98378.91;4926279;29;20047;-48
2021/11/08 00:52:52;;;;;;;6.68;3.90;;;;;;;7.47;79.07;98386.59;4907580;29;20055;-48
2021/11/08 00:55:18;;;;;;;7.55;4.20;;;;;;;7.33;79.53;98349.31;4899561;29;20118;-47
2021/11/08 00:57:46;;;;;;;9.15;5.47;;;;;;;7.41;79.31;98368.75;4897504;29;20123;-47
2021/11/08 01:00:14;;;;;;;9.90;5.13;;;;;;;7.44;79.53;98375.53;4904360;29;20036;-48
2021/11/08 01:02:40;;;;;;;8.70;4.57;;;;;;;7.47;79.53;98373.66;4924759;29;20035;-49
2021/11/08 01:05:10;;;;;;;7.78;4.30;;;;;;;7.37;79.06;98376.72;4931606;29;20099;-49
2021/11/08 01:07:35;;;;;;;8.15;4.90;;;;;;;7.37;79.36;98371.53;4921898;29;20424;-46
2021/11/08 01:10:04;;;;;;;5.18;3.50;;;;;;;7.30;79.09;98364.94;4928822;29;20047;-51
2021/11/08 01:12:30;;;;;;;8.68;5.22;;;;;;;7.38;78.94;98365.47;4935354;29;20405;-51
2021/11/08 01:14:56;;;;;;;7.28;4.03;;;;;;;7.36;78.67;98369.84;4918094;29;20063;-46
2021/11/08 01:17:23;;;;;;;7.65;3.60;;;;;;;7.33;78.40;98367.41;4935792;29;20051;-48
2021/11/08 01:19:50;;;;;;;8.80;4.82;;;;;;;7.30;78.25;98342.50;4916992;29;20102;-51
2021/11/08 01:22:20;;;;;;;11.23;5.45;;;;;;;7.34;78.83;98345.81;4913796;29;20048;-49
2021/11/08 01:24:52;;;;;;;7.47;3.83;;;;;;;7.33;78.20;98339.78;4934624;29;20061;-49
2021/11/08 01:27:40;;;;;;;9.20;5.00;;;;;;;7.35;78.22;98339.72;4902557;29;20051;-46
2021/11/08 01:30:16;;;;;;;8.30;4.82;;;;;;;7.35;78.02;98332.81;4945576;29;20419;-50
2021/11/08 01:32:53;;;;;;;8.73;5.15;;;;;;;7.42;77.77;98321.31;4911611;29;20044;-45
2021/11/08 01:35:28;;;;;;;7.72;4.60;;;;;;;7.30;77.28;98308.91;4934812;29;20435;-49
2021/11/08 01:38:04;;;;;;;6.72;3.80;;;;;;;7.21;77.06;98322.22;4941784;29;20039;-44
2021/11/08 01:40:31;;;;;;;7.35;4.43;;;;;;;7.23;77.32;98317.81;4929873;29;20102;-49
2021/11/08 01:42:58;;;;;;;10.25;5.55;;;;;;;7.29;77.45;98316.72;4917919;29;20047;-48
2021/11/08 01:45:24;;;;;;;8.23;4.85;;;;;;;7.20;77.18;98297.28;4936419;29;20094;-45
2021/11/08 01:47:50;;;;;;;9.93;4.90;;;;;;;7.35;76.97;98330.22;4934176;29;20127;-46
2021/11/08 01:50:16;;;;;;;6.45;4.25;;;;;;;7.29;76.72;98319.31;4933810;29;20507;-49
2021/11/08 01:52:43;;;;;;;6.57;4.47;;;;;;;7.13;76.89;98290.69;4937881;29;20502;-46
2021/11/08 01:55:09;;;;;;;10.32;4.57;;;;;;;7.27;76.82;98321.13;4937113;29;20051;-49
2021/11/08 01:57:36;;;;;;;8.80;5.35;;;;;;;7.28;76.89;98297.78;4933630;29;20047;-47
2021/11/08 02:00:05;;;;;;;7.43;3.78;;;;;;;7.29;76.36;98293.47;4915897;29;20146;-47
2021/11/08 02:02:32;;;;;;;7.95;4.53;;;;;;;7.27;76.63;98290.13;4934794;29;20047;-47
2021/11/08 02:04:58;;;;;;;8.68;5.30;;;;;;;7.27;76.82;98285.78;4916939;29;20044;-46
2021/11/08 02:07:23;;;;;;;8.15;4.55;;;;;;;7.30;76.70;98282.22;4933253;29;20051;-47
2021/11/08 02:09:50;;;;;;;6.53;4.05;;;;;;;7.33;76.19;98276.94;4917274;29;20058;-46
2021/11/08 02:12:15;;;;;;;6.07;3.75;;;;;;;7.24;76.51;98294.50;4940919;29;20036;-49
2021/11/08 02:14:41;;;;;;;9.25;5.53;;;;;;;7.21;76.98;98302.41;4917167;29;20135;-48
2021/11/08 02:17:08;;;;;;;10.85;3.92;;;;;;;7.08;76.84;98284.88;4933567;29;20055;-50
2021/11/08 02:19:34;;;;;;;8.10;4.00;;;;;;;7.08;77.70;98292.63;4917370;29;20044;-47
2021/11/08 02:22:03;;;;;;;7.05;4.05;;;;;;;7.02;77.98;98274.81;4933670;29;20044;-48
2021/11/08 02:24:30;;;;;;;5.07;3.43;;;;;;;7.07;78.00;98303.88;4917051;29;20035;-47
2021/11/08 02:26:56;;;;;;;8.68;4.47;;;;;;;7.05;78.57;98292.78;4934051;29;20051;-47
2021/11/08 02:29:22;;;;;;;6.60;3.70;;;;;;;7.04;78.45;98296.25;4917227;29;20051;-49
2021/11/08 02:31:50;;;;;;;5.97;3.63;;;;;;;6.90;78.52;98268.44;4937094;29;20047;-46
2021/11/08 02:34:17;;;;;;;8.18;4.97;;;;;;;6.95;78.66;98281.16;4930053;29;20054;-48
2021/11/08 02:36:43;;;;;;;6.40;3.72;;;;;;;7.03;78.98;98273.91;4900940;29;20051;-45
2021/11/08 02:39:15;;;;;;;7.78;4.78;;;;;;;7.04;78.86;98265.25;4939940;29;20043;-50
2021/11/08 02:41:41;;;;;;;5.72;3.38;;;;;;;7.06;78.52;98266.03;4913116;29;20040;-45
2021/11/08 02:44:07;;;;;;;8.52;4.35;;;;;;;6.92;78.50;98243.34;4915564;29;20046;-51
2021/11/08 02:46:38;;;;;;;9.43;4.95;;;;;;;6.92;78.03;98227.84;4913113;29;20100;-49
2021/11/08 02:49:06;;;;;;;7.60;4.75;;;;;;;7.08;77.77;98249.56;4919619;29;20047;-47
2021/11/08 02:51:32;;;;;;;10.45;4.90;;;;;;;7.11;78.24;98269.25;4900409;29;20139;-48
2021/11/08 02:54:03;;;;;;;10.23;5.05;;;;;;;7.13;77.48;98255.34;4934729;29;20042;-49
2021/11/08 02:56:30;;;;;;;8.43;4.22;;;;;;;7.07;77.75;98262.53;4933021;29;20500;-52
2021/11/08 02:58:56;;;;;;;9.63;5.75;;;;;;;7.12;78.00;98255.41;4917675;29;20546;-47
2021/11/08 03:01:25;;;;;;;5.82;3.30;;;;;;;7.10;77.38;98244.31;4915589;29;20043;-47
2021/11/08 03:03:56;;;;;;;10.23;5.63;;;;;;;7.07;77.55;98228.94;4934465;29;20054;-45
2021/11/08 03:08:54;;;;;;;9.35;5.07;;;;;;;7.12;77.70;98238.16;4948423;29;20138;-50
2021/11/08 03:11:22;;;;;;;9.68;5.50;;;;;;;7.09;78.21;98234.88;4917006;29;20036;-48
2021/11/08 03:14:03;;;;;;;11.65;5.10;;;;;;;7.12;78.24;98248.50;4931546;29;20051;-51
2021/11/08 03:17:03;;;;;;;6.93;4.20;;;;;;;6.98;78.53;98226.75;4932118;29;20539;-52
2021/11/08 03:19:26;;;;;;;7.43;3.75;;;;;;;7.05;78.47;98241.09;4925961;29;20508;-47
2021/11/08 03:21:56;;;;;;;6.28;3.50;;;;;;;7.11;78.06;98233.09;4940428;29;20133;-49
2021/11/08 03:27:14;;;;;;;11.63;5.03;;;;;;;7.11;78.09;98221.00;4932859;29;20035;-52
2021/11/08 03:29:40;;;;;;;9.35;4.78;;;;;;;7.11;77.97;98221.00;4914123;29;20135;-49
2021/11/08 03:32:06;;;;;;;7.20;4.45;;;;;;;7.12;78.22;98224.41;4928279;29;20535;-49
2021/11/08 03:34:34;;;;;;;11.40;6.13;;;;;;;7.17;77.60;98215.53;4907656;29;20051;-44
2021/11/08 03:36:59;;;;;;;8.40;4.40;;;;;;;7.12;77.65;98222.66;4915918;29;20044;-48
2021/11/08 03:39:26;;;;;;;9.45;5.78;;;;;;;7.14;78.03;98215.69;4916853;29;20043;-45
2021/11/08 03:41:52;;;;;;;8.95;4.90;;;;;;;7.15;77.62;98208.78;4910002;29;20048;-47
2021/11/08 03:44:18;;;;;;;5.47;3.55;;;;;;;7.14;77.83;98210.53;4928052;29;20530;-47
2021/11/08 03:46:43;;;;;;;10.63;5.85;;;;;;;7.12;77.70;98207.16;4922085;29;20423;-45
2021/11/08 03:49:09;;;;;;;9.50;5.90;;;;;;;7.10;77.87;98203.81;4899093;29;20074;-51
2021/11/08 03:51:35;;;;;;;7.43;4.32;;;;;;;7.13;77.65;98195.91;4906357;29;20075;-49
2021/11/08 03:54:03;;;;;;;12.30;5.75;;;;;;;7.13;77.54;98202.84;4929074;29;20047;-46
2021/11/08 03:56:29;;;;;;;6.43;4.25;;;;;;;7.13;77.24;98197.66;4906306;29;20068;-51
2021/11/08 03:58:55;;;;;;;10.10;5.60;;;;;;;7.15;77.45;98186.38;4929308;29;20086;-47
2021/11/08 04:01:21;;;;;;;9.60;5.45;;;;;;;7.17;77.49;98192.28;4911957;29;20048;-49
2021/11/08 04:03:47;;;;;;;12.15;5.60;;;;;;;7.16;77.38;98194.97;4912885;29;20527;-46
2021/11/08 04:06:16;;;;;;;12.23;5.60;;;;;;;7.20;77.11;98186.16;4925504;29;20155;-48
2021/11/08 04:08:42;;;;;;;7.78;4.78;;;;;;;7.22;77.00;98208.44;4892449;29;20047;-48
2021/11/08 04:11:09;;;;;;;9.32;5.10;;;;;;;7.17;76.99;98181.94;4941528;29;20043;-46
2021/11/08 04:13:40;;;;;;;9.32;5.20;;;;;;;7.21;76.94;98169.75;4921262;29;20044;-47
2021/11/08 04:16:08;;;;;;;10.05;5.35;;;;;;;7.19;76.97;98179.31;4940861;29;20586;-54
2021/11/08 04:18:34;;;;;;;9.93;5.05;;;;;;;7.17;76.73;98184.53;4938349;29;20047;-48
2021/11/08 04:21:02;;;;;;;9.20;4.80;;;;;;;7.12;77.34;98164.97;4936171;29;20059;-45
2021/11/08 04:23:28;;;;;;;8.82;5.70;;;;;;;7.16;77.54;98159.63;4936787;29;20047;-49
2021/11/08 04:25:56;;;;;;;12.18;6.55;;;;;;;7.22;77.60;98158.50;4932110;29;20047;-46
2021/11/08 04:28:23;;;;;;;10.82;4.85;;;;;;;7.27;77.26;98151.38;4931809;29;20522;-49
2021/11/08 04:30:50;;;;;;;11.65;6.20;;;;;;;7.29;77.36;98159.03;4933320;29;20054;-46
2021/11/08 04:55:31;;;;;;;10.52;5.85;;;;;;;7.13;78.88;98148.56;4909957;29;20472;-46
2021/11/08 05:30:21;;;;;;;12.43;6.72;;;;;;;6.53;89.07;98105.63;4907515;29;20155;-43
2021/11/08 05:32:49;;;;;;;12.95;6.97;;;;;;;6.60;89.15;98131.09;4904750;29;20036;-44
2021/11/08 05:35:16;;;;;;;10.70;5.80;;;;;;;6.56;90.84;98115.81;4914514;29;20048;-48
2021/11/08 05:37:44;;;;;;;10.95;5.80;;;;;;;6.52;92.19;98106.53;4898044;29;20324;-46
2021/11/08 05:40:13;;;;;;;14.90;7.43;;;;;;;6.42;93.33;98097.50;4906520;29;20060;-49
2021/11/08 05:42:39;;;;;;;14.73;8.18;;;;;;;6.52;92.93;98109.13;4901871;29;20130;-45
2021/11/08 05:45:07;;;;;;;8.98;5.78;;;;;;;6.47;94.53;98114.47;4904295;29;20036;-46
2021/11/08 05:47:33;;;;;;;9.25;4.90;;;;;;;6.38;94.90;98126.00;4906252;29;20051;-46
2021/11/08 05:50:00;;;;;;;13.23;6.47;;;;;;;6.30;97.91;98111.78;4925531;29;20040;-48
2021/11/08 05:52:26;;;;;;;12.77;7.55;;;;;;;6.25;98.33;98113.72;4897045;29;20547;-45
2021/11/08 05:54:52;;;;;;;11.88;7.30;;;;;;;6.20;99.68;98121.66;4906752;29;20048;-47
2021/11/08 06:49:26;;;;;;;16.35;9.23;;;;;;;5.43;100.00;98097.25;4927244;29;20377;-45
2021/11/08 06:51:54;;;;;;;15.70;7.28;;;;;;;5.42;100.00;98087.84;4916435;29;20071;-49
2021/11/08 06:54:22;;;;;;;18.35;8.90;;;;;;;5.47;100.00;98096.22;4915612;29;20527;-49
2021/11/08 06:56:52;;;;;;;16.77;8.50;;;;;;;5.47;100.00;98093.66;4929687;29;20555;-50
2021/11/08 06:59:19;;;;;;;17.85;9.18;;;;;;;5.55;100.00;98095.91;4931501;29;20042;-48
2021/11/08 07:01:48;;;;;;;13.98;7.47;;;;;;;5.57;100.00;98096.69;4931158;29;20046;-45
2021/11/08 07:04:17;;;;;;;14.98;6.78;;;;;;;5.49;100.00;98093.59;4915154;29;20090;-48
2021/11/08 07:06:44;;;;;;;14.20;7.03;;;;;;;5.46;100.00;98102.28;4931466;29;20094;-49
2021/11/08 07:09:11;;;;;;;11.82;5.90;;;;;;;5.44;100.00;98092.94;4930777;29;20040;-47
2021/11/08 07:11:38;;;;;;;7.32;4.82;;;;;;;5.41;100.00;98091.31;4931300;29;20069;-43
2021/11/08 07:14:06;;;;;;;13.05;6.60;;;;;;;5.38;100.00;98088.03;4914493;29;20048;-45
2021/11/08 07:16:33;;;;;;;8.43;4.03;;;;;;;5.36;100.00;98089.81;4894582;29;20401;-44
2021/11/08 07:18:58;;;;;;;10.43;5.75;;;;;;;5.35;100.00;98101.00;4893508;29;20854;-44
2021/11/08 07:21:24;;;;;;;7.88;4.35;;;;;;;5.20;100.00;98056.06;4927734;29;20043;-42
2021/11/08 07:23:50;;;;;;;14.57;6.95;;;;;;;5.31;100.00;98073.69;4914863;29;20472;-41
2021/11/08 07:26:16;;;;;;;9.57;4.32;;;;;;;5.40;100.00;98107.66;4914549;29;20190;-43
2021/11/08 07:28:41;;;;;;;7.00;4.53;;;;;;;5.40;100.00;98101.66;4914734;29;20055;-43
2021/11/08 07:31:09;;;;;;;12.93;6.63;;;;;;;5.38;100.00;98075.13;4932260;29;20047;-44
2021/11/08 07:33:35;;;;;;;9.52;5.38;;;;;;;5.40;100.00;98089.63;4914444;29;20051;-42
2021/11/08 07:36:01;;;;;;;11.38;3.20;;;;;;;5.41;100.00;98078.44;4914571;29;20057;-42
2021/11/08 07:38:27;;;;;;;14.50;6.63;;;;;;;5.43;100.00;98070.63;4931260;29;21809;-43
2021/11/08 07:40:53;;;;;;;9.80;5.55;;;;;;;5.44;100.00;98067.97;4931327;29;20056;-42
2021/11/08 07:43:19;;;;;;;5.57;3.20;;;;;;;5.52;100.00;98081.41;4932728;29;20055;-43
2021/11/08 07:45:45;;;;;;;6.22;4.30;;;;;;;5.43;100.00;98088.69;4915559;29;20047;-42
2021/11/08 07:48:11;;;;;;;6.55;3.22;;;;;;;5.42;100.00;98087.84;4915393;29;20112;-43
2021/11/08 07:50:38;;;;;;;11.10;5.65;;;;;;;5.51;100.00;98078.91;4932573;29;20135;-42
2021/11/08 07:53:04;;;;;;;6.78;4.43;;;;;;;5.57;100.00;98067.50;4915016;29;20524;-43
2021/11/08 07:55:30;;;;;;;13.93;6.38;;;;;;;5.44;100.00;98054.28;4932393;29;20050;-42
2021/11/08 07:57:55;;;;;;;12.57;5.70;;;;;;;5.61;100.00;98080.19;4932628;29;20068;-44
2021/11/08 08:00:21;;;;;;;8.35;4.25;;;;;;;5.60;100.00;98069.97;4915713;29;20478;-43
2021/11/08 08:02:49;;;;;;;6.65;3.63;;;;;;;5.63;100.00;98096.47;4932499;29;20036;-44
2021/11/08 08:05:17;;;;;;;6.22;3.40;;;;;;;5.59;100.00;98069.13;4914232;29;20095;-44
2021/11/08 08:07:43;;;;;;;9.77;5.35;;;;;;;5.63;100.00;98068.09;4913560;29;20084;-41
2021/11/08 08:10:10;;;;;;;7.30;4.22;;;;;;;5.69;100.00;98070.44;4915384;29;20473;-45
2021/11/08 08:12:36;;;;;;;9.63;4.93;;;;;;;5.75;100.00;98064.19;4919810;29;20536;-45
2021/11/08 08:15:03;;;;;;;7.22;4.35;;;;;;;5.79;100.00;98073.47;4931142;29;20373;-42
2021/11/08 08:17:29;;;;;;;8.13;3.80;;;;;;;5.82;100.00;98071.59;4938486;29;20098;-43
2021/11/08 08:19:55;;;;;;;7.38;4.35;;;;;;;5.84;100.00;98068.97;4921716;29;20460;-43
2021/11/08 08:22:24;;;;;;;5.82;3.55;;;;;;;5.82;100.00;98056.13;4921582;29;20046;-43
2021/11/08 08:24:50;;;;;;;6.85;4.35;;;;;;;5.91;100.00;98057.53;4938396;29;20043;-44
2021/11/08 08:27:16;;;;;;;9.75;4.80;;;;;;;5.97;100.00;98056.44;4921398;29;20039;-45
2021/11/08 08:29:42;;;;;;;9.07;4.85;;;;;;;6.00;100.00;98056.31;4921233;29;20044;-44
2021/11/08 08:32:09;;;;;;;7.35;4.38;;;;;;;5.92;100.00;98052.28;4902317;29;20054;-43
2021/11/08 08:34:35;;;;;;;7.88;4.53;;;;;;;6.03;100.00;98064.75;4936904;29;20040;-42
2021/11/08 08:37:01;;;;;;;8.95;4.45;;;;;;;5.91;100.00;98018.84;4921297;29;20039;-45
2021/11/08 08:39:27;;;;;;;8.85;5.47;;;;;;;6.10;100.00;98040.38;4920787;29;20448;-44
2021/11/08 08:41:53;;;;;;;5.50;3.35;;;;;;;6.17;100.00;98043.53;4920800;29;20050;-42
2021/11/08 08:44:19;;;;;;;6.97;4.63;;;;;;;6.19;100.00;98037.41;4938367;29;20071;-44
2021/11/08 08:46:46;;;;;;;8.48;4.18;;;;;;;6.25;100.00;98034.56;4921603;29;20091;-43
2021/11/08 08:49:13;;;;;;;8.18;4.47;;;;;;;6.30;100.00;98034.34;4938427;29;20090;-43
2021/11/08 08:51:40;;;;;;;7.60;3.72;;;;;;;6.32;100.00;98017.06;4938001;29;20551;-43
2021/11/08 08:54:06;;;;;;;7.80;3.45;;;;;;;6.28;100.00;98023.28;4921327;29;20494;-44
2021/11/08 08:56:34;;;;;;;10.35;5.13;;;;;;;6.36;100.00;98034.09;4937049;29;20571;-44
2021/11/08 08:59:00;;;;;;;6.95;4.35;;;;;;;6.42;100.00;98033.81;4905462;29;20039;-44
2021/11/08 09:01:26;;;;;;;8.55;4.45;;;;;;;6.48;99.87;98022.41;4938317;29;20503;-44
2021/11/08 09:03:53;;;;;;;7.65;4.20;;;;;;;6.52;99.46;98029.94;4905441;29;20067;-45
2021/11/08 09:06:19;;;;;;;7.82;3.40;;;;;;;6.50;98.58;98038.63;4938083;29;20070;-42
2021/11/08 09:08:45;;;;;;;8.45;4.47;;;;;;;6.52;99.45;98016.19;4938015;29;20063;-42
2021/11/08 09:11:12;;;;;;;6.97;3.97;;;;;;;6.54;98.82;98022.13;4920240;29;20520;-43
2021/11/08 09:13:38;;;;;;;7.35;4.43;;;;;;;6.51;98.46;98020.50;4931616;29;20130;-45
2021/11/08 09:16:11;;;;;;;8.35;4.55;;;;;;;6.51;98.48;98027.41;4937987;29;20142;-45
2021/11/08 09:18:41;;;;;;;7.07;3.53;;;;;;;6.53;98.78;98029.03;4936858;29;20511;-44
2021/11/08 09:21:08;;;;;;;8.77;5.15;;;;;;;6.55;98.76;98023.78;4937470;29;20404;-44
2021/11/08 09:23:35;;;;;;;6.47;3.72;;;;;;;6.59;98.66;98021.00;4934242;29;20046;-44
2021/11/08 09:26:00;;;;;;;4.30;3.20;;;;;;;6.60;97.19;98016.66;4917865;29;20035;-44
2021/11/08 09:28:26;;;;;;;9.82;5.32;;;;;;;6.65;97.63;98015.56;4935012;29;20039;-43
2021/11/08 09:30:52;;;;;;;7.20;4.38;;;;;;;6.68;97.00;98017.16;4934947;29;20046;-43
2021/11/08 09:33:18;;;;;;;3.50;2.67;;;;;;;6.64;95.95;98023.38;4912667;29;20071;-43
2021/11/08 09:35:48;;;;;;;6.32;3.75;;;;;;;6.59;95.72;98023.59;4916872;29;20087;-45
2021/11/08 09:38:15;;;;;;;8.98;5.13;;;;;;;6.63;95.63;98019.13;4933759;29;21496;-45
2021/11/08 09:40:42;;;;;;;9.32;4.97;;;;;;;6.63;95.31;98006.22;4932882;29;20086;-44
2021/11/08 09:43:10;;;;;;;7.85;4.85;;;;;;;6.64;95.11;98019.06;4916372;29;20048;-43
2021/11/08 09:45:37;;;;;;;7.40;4.45;;;;;;;6.64;94.83;98013.91;4933669;29;20039;-43
2021/11/08 09:48:04;;;;;;;8.43;4.25;;;;;;;6.59;94.33;97996.94;4933474;29;20051;-44
2021/11/08 09:50:33;;;;;;;8.80;5.00;;;;;;;6.71;94.32;98004.09;4915188;29;20074;-47
2021/11/08 09:53:01;;;;;;;5.32;3.70;;;;;;;6.74;93.13;97999.66;4901011;29;20122;-44
2021/11/08 09:55:27;;;;;;;9.55;4.63;;;;;;;6.81;93.28;98000.19;4932765;29;20047;-45
2021/11/08 09:57:53;;;;;;;9.43;5.22;;;;;;;6.91;92.69;98003.22;4932741;29;20126;-44
2021/11/08 10:00:25;;;;;;;7.32;4.65;;;;;;;6.93;92.25;97991.88;4930842;29;20059;-42
2021/11/08 10:02:57;;;;;;;8.43;4.38;;;;;;;7.00;91.69;97989.84;4931908;29;20039;-44
2021/11/08 10:05:31;;;;;;;9.70;5.40;;;;;;;7.06;90.87;97980.09;4932309;29;20135;-43
2021/11/08 10:07:58;;;;;;;9.18;6.13;;;;;;;7.12;90.55;97976.34;4915684;29;20050;-45
2021/11/08 10:10:25;;;;;;;5.93;4.03;;;;;;;7.17;90.00;97970.03;4931382;29;20130;-42
2021/11/08 10:13:12;;;;;;;7.07;3.53;;;;;;;7.11;89.13;97980.69;4932848;29;20060;-46
2021/11/08 10:15:41;;;;;;;8.40;3.75;;;;;;;6.99;89.90;97976.09;4916847;29;20042;-43
2021/11/08 10:18:07;;;;;;;7.13;4.25;;;;;;;6.92;89.82;97964.38;4930839;29;20050;-43
2021/11/08 10:20:36;;;;;;;7.18;4.20;;;;;;;6.97;90.27;97975.31;4931185;29;20566;-44
2021/11/08 10:23:04;;;;;;;8.05;4.75;;;;;;;6.97;90.59;97972.75;4930458;29;20364;-44
2021/11/08 10:25:31;;;;;;;8.60;4.68;;;;;;;7.00;90.92;97975.19;4916689;29;20050;-44
2021/11/08 10:27:57;;;;;;;10.15;5.43;;;;;;;7.03;91.04;97969.88;4915408;29;20039;-44
2021/11/08 10:30:29;;;;;;;7.43;4.43;;;;;;;7.02;91.08;97970.78;4933479;29;20048;-43
2021/11/08 10:33:09;;;;;;;9.52;6.10;;;;;;;7.00;91.84;97977.78;4913254;29;20051;-45
2021/11/08 10:35:38;;;;;;;6.85;4.53;;;;;;;7.00;91.96;97964.88;4912481;29;20580;-45
2021/11/08 10:38:08;;;;;;;7.75;5.03;;;;;;;6.95;93.04;97959.09;4915885;29;20142;-42
2021/11/08 10:41:14;;;;;;;7.18;4.70;;;;;;;6.89;93.82;97969.69;4916671;29;20062;-43
2021/11/08 10:44:04;;;;;;;9.88;4.68;;;;;;;6.86;94.32;97959.50;4913235;29;20051;-44
2021/11/08 10:46:35;;;;;;;9.73;5.80;;;;;;;6.92;94.03;97948.88;4916752;29;20054;-44
2021/11/08 10:49:05;;;;;;;8.65;5.55;;;;;;;6.98;93.65;97978.75;4916183;29;20047;-44
2021/11/08 10:51:31;;;;;;;9.20;5.38;;;;;;;6.93;93.24;97927.31;4913010;29;20044;-46
2021/11/08 10:54:05;;;;;;;11.10;4.57;;;;;;;7.00;93.43;97948.53;4913185;29;20083;-42
2021/11/08 10:56:35;;;;;;;12.25;6.07;;;;;;;6.95;93.76;97941.00;4914479;29;20083;-44
2021/11/08 10:59:04;;;;;;;12.73;6.38;;;;;;;6.94;93.96;97941.06;4897362;29;20531;-44
2021/11/08 11:01:33;;;;;;;12.65;5.57;;;;;;;6.90;94.92;97945.56;4915874;29;20085;-46
2021/11/08 11:04:05;;;;;;;9.15;4.55;;;;;;;6.92;94.31;97935.13;4916223;29;20179;-43
2021/11/08 11:06:46;;;;;;;8.23;4.43;;;;;;;6.92;94.36;97937.69;4933441;29;20047;-44
2021/11/08 11:09:13;;;;;;;6.53;4.05;;;;;;;6.90;92.90;97945.56;4933544;29;20051;-45
2021/11/08 11:11:39;;;;;;;10.85;5.25;;;;;;;6.95;92.72;97927.25;4933039;29;20044;-47
2021/11/08 11:14:05;;;;;;;9.05;5.15;;;;;;;7.00;92.71;97944.19;4932889;29;20050;-42
2021/11/08 11:16:36;;;;;;;11.63;5.90;;;;;;;7.05;92.68;97938.81;4916061;29;20533;-43
2021/11/08 11:19:06;;;;;;;10.10;5.00;;;;;;;7.06;93.56;97937.91;4933112;29;20031;-44
2021/11/08 11:21:32;;;;;;;9.10;6.13;;;;;;;6.96;93.58;97921.97;4932792;29;20511;-44
2021/11/08 11:24:05;;;;;;;8.75;4.85;;;;;;;7.02;93.70;97933.78;4915936;29;20371;-43
2021/11/08 11:26:36;;;;;;;10.68;5.53;;;;;;;7.02;94.62;97929.44;4932545;29;20040;-43
2021/11/08 11:29:04;;;;;;;10.38;5.57;;;;;;;7.10;94.85;97931.66;4912604;29;20052;-44
2021/11/08 11:31:33;;;;;;;;;;;;;;;7.17;94.39;97927.88;4930048;29;20484;-42
2021/11/08 11:34:09;;;;;;;6.35;4.15;;;;;;;7.17;93.03;97923.53;4910740;29;19967;-43
2021/11/08 11:36:36;;;;;;;15.80;6.57;;;;;;;7.16;93.65;97926.22;4932535;29;20427;-47
2021/11/08 11:39:06;;;;;;;11.07;5.88;;;;;;;7.19;93.71;97918.28;4932264;29;20107;-45
2021/11/08 11:41:37;;;;;;;9.90;5.93;;;;;;;7.14;93.34;97923.69;4932811;29;20047;-43
2021/11/08 11:44:18;;;;;;;8.98;4.82;;;;;;;7.14;93.28;97939.19;4932689;29;20049;-43
2021/11/08 11:46:51;;;;;;;10.40;4.50;;;;;;;7.10;92.75;97924.75;4932513;29;20042;-44
2021/11/08 11:49:18;;;;;;;6.72;3.85;;;;;;;7.13;92.54;97934.94;4932538;29;20059;-44
2021/11/08 11:51:53;;;;;;;3.83;2.72;;;;;;;7.11;91.82;97921.28;4931891;29;20142;-46
2021/11/08 11:54:22;;;;;;;6.53;3.88;;;;;;;7.06;91.53;97907.75;4915628;29;20526;-43
2021/11/08 11:56:50;;;;;;;5.07;3.33;;;;;;;7.13;90.89;97932.34;4932399;29;20039;-43
2021/11/08 11:59:18;;;;;;;6.40;3.20;;;;;;;7.14;90.97;97926.28;4915492;29;20040;-43
2021/11/08 12:01:47;;;;;;;8.05;4.50;;;;;;;7.10;90.84;97926.50;4915612;29;20043;-43
2021/11/08 12:04:13;;;;;;;8.65;5.43;;;;;;;7.13;90.49;97924.59;4915503;29;20051;-42
2021/11/08 12:06:42;;;;;;;9.13;5.13;;;;;;;7.04;90.30;97906.97;4914906;29;20070;-43
2021/11/08 12:09:12;;;;;;;9.45;5.00;;;;;;;7.11;89.90;97910.94;4915457;29;20090;-45
2021/11/08 12:11:41;;;;;;;9.35;5.20;;;;;;;7.24;89.14;97917.16;4915505;29;20591;-42
2021/11/08 12:14:14;;;;;;;6.45;3.83;;;;;;;7.23;88.92;97919.81;4932569;29;20048;-46
2021/11/08 12:16:57;;;;;;;7.32;4.25;;;;;;;7.31;88.72;97924.63;4932408;29;20427;-45
2021/11/08 12:19:45;;;;;;;8.57;4.28;;;;;;;7.32;87.72;97921.97;4932947;29;20055;-42
2021/11/08 12:22:26;;;;;;;3.83;1.98;;;;;;;7.28;87.37;97925.59;4914877;29;20488;-44
2021/11/08 12:25:00;;;;;;;8.70;4.03;;;;;;;7.29;87.39;97914.34;4932501;29;20051;-43
2021/11/08 12:27:53;;;;;;;7.70;4.00;;;;;;;7.34;86.84;97916.69;4915294;29;20070;-44
2021/11/08 12:30:48;;;;;;;7.13;4.15;;;;;;;7.35;86.48;97926.13;4930394;29;20055;-44
2021/11/08 12:33:27;;;;;;;6.78;3.30;;;;;;;7.30;86.00;97926.38;4909445;29;20051;-44
2021/11/08 12:35:55;;;;;;;6.40;3.55;;;;;;;7.37;86.09;97930.34;4931828;29;20453;-43
2021/11/08 12:38:24;;;;;;;6.37;4.10;;;;;;;7.38;86.38;97929.38;4915317;29;20039;-44
2021/11/08 12:41:03;;;;;;;6.00;4.75;;;;;;;7.37;86.00;97924.31;4932097;29;20050;-44
2021/11/08 12:43:33;;;;;;;4.85;3.25;;;;;;;7.36;85.90;97917.47;4915060;29;20044;-45
2021/11/08 12:46:16;;;;;;;11.32;4.40;;;;;;;7.36;85.77;97927.81;4915247;29;20140;-46
2021/11/08 12:48:42;;;;;;;4.43;2.95;;;;;;;7.35;85.15;97937.31;4914988;29;20067;-46
2021/11/08 12:51:10;;;;;;;7.80;3.63;;;;;;;7.36;85.58;97933.81;4932155;29;20086;-45
2021/11/08 12:54:07;;;;;;;7.28;4.45;;;;;;;7.35;85.33;97921.81;4932207;29;20062;-44
2021/11/08 12:56:40;;;;;;;6.57;3.78;;;;;;;7.37;85.08;97937.25;4931904;29;20123;-44
2021/11/08 12:59:26;;;;;;;4.28;2.45;;;;;;;7.33;85.40;97915.06;4918958;29;20134;-44
2021/11/08 13:02:07;;;;;;;9.23;4.20;;;;;;;7.44;84.95;97930.84;4919014;29;20182;-45
2021/11/08 13:04:46;;;;;;;6.55;3.33;;;;;;;7.39;85.14;97930.22;4904212;29;20515;-45
2021/11/08 13:07:13;;;;;;;6.10;4.45;;;;;;;7.36;85.86;97920.91;4918601;29;20673;-44
2021/11/08 13:10:08;;;;;;;7.80;4.10;;;;;;;7.36;86.90;97922.66;4919719;29;20055;-44
2021/11/08 13:12:41;;;;;;;4.63;2.83;;;;;;;7.32;87.68;97934.06;4914303;29;20063;-43
2021/11/08 13:15:12;;;;;;;7.45;4.78;;;;;;;7.28;89.04;97928.19;4899921;29;20143;-44
2021/11/08 13:17:49;;;;;;;8.02;4.28;;;;;;;7.20;91.97;97938.06;4923103;29;20039;-44
2021/11/08 13:20:17;;;;;;;6.32;4.57;;;;;;;7.08;93.75;97942.06;4935508;29;20039;-44
2021/11/08 13:22:46;;;;;;;9.95;5.32;;;;;;;6.99;95.99;97937.34;4918212;29;20423;-43
2021/11/08 13:25:14;;;;;;;8.70;4.72;;;;;;;6.96;97.70;97941.84;4935442;29;20546;-44
2021/11/08 13:27:48;;;;;;;7.30;4.45;;;;;;;6.74;100.00;97934.25;4935040;29;20051;-44
2021/11/08 13:30:15;;;;;;;6.43;4.25;;;;;;;6.64;100.00;97933.88;4934678;29;20098;-44
2021/11/08 13:32:41;;;;;;;9.75;5.05;;;;;;;6.60;100.00;97941.78;4916643;29;20131;-45
2021/11/08 13:35:14;;;;;;;6.03;3.92;;;;;;;6.57;100.00;97936.78;4935217;29;20047;-43
2021/11/08 13:37:42;;;;;;;8.85;4.03;;;;;;;6.57;100.00;97929.88;4934638;29;20051;-42
2021/11/08 13:40:22;;;;;;;7.13;3.78;;;;;;;6.60;100.00;97937.47;4935082;29;20040;-44
2021/11/08 13:42:54;;;;;;;10.57;5.72;;;;;;;6.66;100.00;97934.59;4935034;29;20043;-42